Time;durP1;ratioP1;P1;durP2;ratioP2;P2;SDS_P1;SDS_P2;PMS_P1;PMS_P2;Temp;Humidity;BMP_temperature;BMP_pressure;BME280_temperature;BME280_humidity;BME280_pressure;Samples;Min_cycle;Max_cycle;Signal;HPM_P1;HPM_P2
2023/01/14 00:01:11;;;;;;;14.73;10.73;;;;;;;7.85;100.00;99814.91;5069710;28;20210;-60
2023/01/14 00:03:38;;;;;;;14.07;9.80;;;;;;;7.88;100.00;99817.47;5066993;28;20200;-58
2023/01/14 00:06:07;;;;;;;15.63;10.17;;;;;;;7.88;100.00;99814.88;5069884;28;20724;-60
2023/01/14 00:08:34;;;;;;;15.17;10.03;;;;;;;7.95;100.00;99817.34;5069652;28;20227;-60
2023/01/14 00:11:06;;;;;;;14.03;9.47;;;;;;;8.01;100.00;99822.44;5069342;28;20207;-60
2023/01/14 00:13:34;;;;;;;10.53;8.57;;;;;;;7.93;100.00;99803.59;5069119;28;20199;-59
2023/01/14 00:16:02;;;;;;;12.97;9.00;;;;;;;8.10;100.00;99820.63;5069335;28;20217;-58
2023/01/14 00:18:32;;;;;;;9.63;8.63;;;;;;;7.87;100.00;99816.59;5069536;28;20196;-59
2023/01/14 00:21:01;;;;;;;11.63;8.93;;;;;;;7.88;100.00;99802.81;5066573;28;20196;-59
2023/01/14 00:23:30;;;;;;;12.60;9.17;;;;;;;8.03;100.00;99825.84;5069270;28;20428;-61
2023/01/14 00:26:06;;;;;;;11.60;9.50;;;;;;;7.99;100.00;99821.63;5066392;28;20200;-61
2023/01/14 00:28:33;;;;;;;10.83;9.43;;;;;;;7.95;100.00;99814.78;5068876;28;20678;-59
2023/01/14 00:31:07;;;;;;;10.83;8.87;;;;;;;7.84;100.00;99815.78;5069117;28;20260;-59
2023/01/14 00:33:35;;;;;;;13.17;9.80;;;;;;;7.96;100.00;99819.06;5069444;28;20198;-58
2023/01/14 00:36:03;;;;;;;14.83;9.70;;;;;;;7.79;100.00;99823.59;5069057;28;20200;-58
2023/01/14 00:38:31;;;;;;;13.43;10.10;;;;;;;7.82;100.00;99817.53;5069008;28;20192;-58
2023/01/14 00:41:04;;;;;;;14.07;10.07;;;;;;;7.86;100.00;99814.91;5066361;28;20336;-58
2023/01/14 00:43:31;;;;;;;16.50;10.97;;;;;;;8.00;100.00;99822.47;5069079;28;20533;-59
2023/01/14 00:45:58;;;;;;;14.87;10.33;;;;;;;8.08;100.00;99825.81;5066488;28;20204;-60
2023/01/14 00:48:25;;;;;;;17.13;10.80;;;;;;;8.12;100.00;99824.91;5068743;28;20664;-59
2023/01/14 00:50:52;;;;;;;16.07;10.33;;;;;;;8.06;100.00;99818.94;5068851;28;20668;-59
2023/01/14 00:53:19;;;;;;;14.13;10.90;;;;;;;8.15;100.00;99827.41;5068460;28;20291;-59
2023/01/14 00:55:47;;;;;;;13.20;9.87;;;;;;;8.12;100.00;99822.31;5068776;28;20296;-58
2023/01/14 00:58:14;;;;;;;14.53;11.07;;;;;;;8.11;100.00;99818.00;5068925;28;20782;-59
2023/01/14 01:00:41;;;;;;;12.93;10.37;;;;;;;8.07;100.00;99818.06;5068782;28;20192;-58
2023/01/14 01:03:08;;;;;;;13.67;10.50;;;;;;;8.03;100.00;99818.09;5068918;28;20208;-59
2023/01/14 01:05:36;;;;;;;17.07;10.97;;;;;;;7.96;100.00;99805.28;5068626;28;20694;-60
2023/01/14 01:08:03;;;;;;;14.53;10.33;;;;;;;7.97;100.00;99810.44;5068187;28;20235;-59
2023/01/14 01:10:31;;;;;;;17.60;10.97;;;;;;;7.89;100.00;99809.69;5068536;28;20194;-59
2023/01/14 01:12:59;;;;;;;16.27;11.60;;;;;;;7.86;100.00;99807.16;5068386;28;20196;-60
2023/01/14 01:15:26;;;;;;;16.80;11.93;;;;;;;7.90;100.00;99806.22;5067874;28;20202;-59
2023/01/14 01:17:53;;;;;;;19.40;11.70;;;;;;;7.93;100.00;99801.00;5068285;28;20572;-58
2023/01/14 01:20:20;;;;;;;15.80;11.93;;;;;;;7.95;100.00;99796.69;5068021;28;20196;-59
2023/01/14 01:22:47;;;;;;;17.00;11.77;;;;;;;8.00;100.00;99792.31;5068243;28;20279;-60
2023/01/14 01:25:14;;;;;;;14.00;11.33;;;;;;;7.95;100.00;99794.09;5068733;28;20215;-60
2023/01/14 01:27:41;;;;;;;18.03;12.07;;;;;;;7.94;100.00;99782.03;5068164;28;20609;-60
2023/01/14 01:30:10;;;;;;;15.83;12.50;;;;;;;7.95;100.00;99786.34;5068607;28;20199;-60
2023/01/14 01:32:37;;;;;;;20.00;12.97;;;;;;;8.03;100.00;99779.31;5068448;28;20960;-59
2023/01/14 01:35:05;;;;;;;19.70;12.27;;;;;;;8.11;100.00;99780.97;5068389;28;20206;-59
2023/01/14 01:37:32;;;;;;;23.23;13.93;;;;;;;8.12;100.00;99774.91;5068279;28;20192;-58
2023/01/14 01:39:59;;;;;;;20.50;13.27;;;;;;;7.97;100.00;99766.50;5065870;28;20188;-59
2023/01/14 01:42:28;;;;;;;18.73;12.77;;;;;;;7.98;100.00;99773.38;5068385;28;20196;-58
2023/01/14 01:45:23;;;;;;;16.10;12.07;;;;;;;8.01;100.00;99768.16;5068169;28;20191;-60
2023/01/14 01:47:55;;;;;;;16.87;12.40;;;;;;;8.01;100.00;99755.22;5067023;28;20215;-60
2023/01/14 01:50:22;;;;;;;18.27;12.83;;;;;;;8.08;100.00;99760.31;5066186;28;20668;-59
2023/01/14 01:52:50;;;;;;;21.20;13.83;;;;;;;8.14;100.00;99755.91;5067940;28;20188;-60
2023/01/14 01:55:19;;;;;;;22.40;14.03;;;;;;;8.12;100.00;99755.09;5068085;28;20439;-60
2023/01/14 01:57:51;;;;;;;19.07;13.13;;;;;;;8.08;100.00;99742.22;5068093;28;20191;-60
2023/01/14 02:00:19;;;;;;;22.23;14.30;;;;;;;8.07;100.00;99748.28;5065128;28;20323;-58
2023/01/14 02:02:49;;;;;;;20.17;14.07;;;;;;;8.13;100.00;99743.00;5068194;28;20250;-59
2023/01/14 02:05:16;;;;;;;18.83;13.23;;;;;;;8.05;100.00;99744.84;5070815;28;20203;-60
2023/01/14 02:07:44;;;;;;;23.40;14.27;;;;;;;7.99;100.00;99736.31;5071754;28;20218;-59
2023/01/14 02:10:12;;;;;;;24.07;14.50;;;;;;;7.98;100.00;99731.16;5071800;28;20192;-60
2023/01/14 02:13:00;;;;;;;23.73;15.07;;;;;;;7.94;100.00;99726.91;5069015;28;20204;-59
2023/01/14 02:15:40;;;;;;;23.60;14.70;;;;;;;7.97;100.00;99730.31;5070109;28;20569;-60
2023/01/14 02:18:18;;;;;;;24.10;15.20;;;;;;;7.86;100.00;99736.53;5070597;28;20192;-59
2023/01/14 02:20:48;;;;;;;27.43;16.47;;;;;;;7.94;100.00;99726.91;5069667;28;20210;-60
2023/01/14 02:23:48;;;;;;;27.13;16.53;;;;;;;7.95;100.00;99721.72;5071580;28;20195;-59
2023/01/14 02:26:50;;;;;;;24.00;15.00;;;;;;;7.91;100.00;99729.53;5071180;28;20188;-59
2023/01/14 02:29:46;;;;;;;25.80;15.80;;;;;;;7.95;100.00;99721.72;5071341;28;20555;-59
2023/01/14 02:32:16;;;;;;;25.93;16.43;;;;;;;8.05;100.00;99726.75;5070434;28;20203;-59
2023/01/14 02:34:53;;;;;;;28.77;16.67;;;;;;;8.10;100.00;99722.38;5069268;28;20196;-61
2023/01/14 02:37:28;;;;;;;25.60;15.93;;;;;;;8.06;100.00;99725.88;5068840;28;20195;-61
2023/01/14 02:40:02;;;;;;;26.23;16.47;;;;;;;8.12;100.00;99728.38;5071176;28;20203;-59
2023/01/14 02:45:30;;;;;;;25.93;15.43;;;;;;;7.90;100.00;99730.44;5069075;28;20207;-59
2023/01/14 02:48:00;;;;;;;23.40;14.57;;;;;;;7.85;100.00;99732.22;5070863;28;20594;-59
2023/01/14 02:50:29;;;;;;;23.47;15.27;;;;;;;7.88;100.00;99733.03;5071271;28;20602;-58
2023/01/14 02:52:56;;;;;;;26.63;15.57;;;;;;;7.89;100.00;99737.34;5070931;28;20191;-59
2023/01/14 02:55:29;;;;;;;26.93;15.47;;;;;;;7.93;100.00;99738.13;5070965;28;20196;-59
2023/01/14 02:58:15;;;;;;;26.93;15.83;;;;;;;7.95;100.00;99747.56;5070884;28;20192;-59
2023/01/14 03:00:53;;;;;;;20.10;15.20;;;;;;;7.90;100.00;99743.38;5068466;28;20579;-59
2023/01/14 03:03:38;;;;;;;20.23;14.60;;;;;;;7.91;100.00;99745.03;5068444;28;20203;-57
2023/01/14 03:06:24;;;;;;;20.83;14.37;;;;;;;7.90;100.00;99746.78;5069334;28;20642;-59
2023/01/14 03:09:03;;;;;;;17.87;12.37;;;;;;;7.91;100.00;99745.91;5069701;28;20211;-60
2023/01/14 03:11:39;;;;;;;22.60;13.70;;;;;;;7.92;100.00;99752.78;5069597;28;20554;-60
2023/01/14 03:14:15;;;;;;;19.10;13.60;;;;;;;7.92;100.00;99752.78;5069187;28;20191;-58
2023/01/14 03:16:47;;;;;;;22.50;15.57;;;;;;;7.93;100.00;99754.47;5068193;28;20198;-59
2023/01/14 03:19:20;;;;;;;20.87;14.93;;;;;;;7.86;100.00;99745.13;5070519;28;20237;-59
2023/01/14 03:21:50;;;;;;;20.70;15.23;;;;;;;7.88;100.00;99756.31;5070771;28;20660;-59
2023/01/14 03:24:22;;;;;;;21.80;14.87;;;;;;;7.91;100.00;99753.66;5070502;28;20188;-59
2023/01/14 03:26:51;;;;;;;21.93;15.00;;;;;;;7.82;100.00;99761.53;5070041;28;20228;-60
2023/01/14 03:29:27;;;;;;;22.40;15.60;;;;;;;7.79;100.00;99755.56;5070432;28;20190;-61
2023/01/14 03:32:01;;;;;;;24.40;15.50;;;;;;;7.78;100.00;99759.03;5070060;28;20241;-59
2023/01/14 03:34:31;;;;;;;24.20;16.73;;;;;;;7.73;100.00;99756.50;5070248;28;20196;-59
2023/01/14 03:37:01;;;;;;;27.00;17.40;;;;;;;7.71;100.00;99753.06;5070196;28;20192;-61
2023/01/14 03:39:29;;;;;;;30.47;18.07;;;;;;;7.69;100.00;99754.81;5070183;28;20230;-59
2023/01/14 03:42:20;;;;;;;28.77;18.93;;;;;;;7.59;100.00;99753.22;5069920;28;20196;-59
2023/01/14 03:44:57;;;;;;;29.33;18.93;;;;;;;7.52;100.00;99757.63;5068534;28;20664;-58
2023/01/14 03:47:28;;;;;;;30.63;19.53;;;;;;;7.54;100.00;99760.22;5067793;28;20218;-58
2023/01/14 03:49:56;;;;;;;29.53;18.03;;;;;;;7.56;100.00;99758.47;5070112;28;20261;-59
2023/01/14 03:52:35;;;;;;;30.80;18.83;;;;;;;7.56;100.00;99753.31;5069888;28;20188;-59
2023/01/14 03:55:08;;;;;;;28.97;19.27;;;;;;;7.58;100.00;99761.84;5067630;28;20191;-58
2023/01/14 03:57:44;;;;;;;31.43;19.33;;;;;;;7.55;100.00;99767.94;5069618;28;20195;-59
2023/01/14 04:00:16;;;;;;;29.40;18.77;;;;;;;7.60;100.00;99760.13;5069962;28;20191;-59
2023/01/14 04:02:45;;;;;;;26.93;18.03;;;;;;;7.62;100.00;99760.97;5067434;28;20582;-60
2023/01/14 04:05:13;;;;;;;25.53;18.30;;;;;;;7.59;100.00;99753.22;5069553;28;20188;-60
2023/01/14 04:07:40;;;;;;;30.90;18.57;;;;;;;7.56;100.00;99753.31;5066956;28;20216;-60
2023/01/14 04:10:08;;;;;;;31.40;20.90;;;;;;;7.58;100.00;99757.53;5069761;28;20199;-60
2023/01/14 04:15:20;;;;;;;32.90;20.10;;;;;;;7.60;100.00;99749.78;5069209;28;20191;-59
2023/01/14 04:15:21;;;;;;;30.93;20.70;;;;;;;7.64;100.00;99756.63;5067069;28;20222;-58
2023/01/14 04:17:49;;;;;;;27.17;18.57;;;;;;;7.64;100.00;99748.88;5069298;28;20192;-59
2023/01/14 04:20:16;;;;;;;34.13;19.53;;;;;;;7.67;100.00;99743.69;5069566;28;20192;-59
2023/01/14 04:22:43;;;;;;;29.50;18.90;;;;;;;7.72;100.00;99747.03;5069121;28;20202;-59
2023/01/14 04:25:10;;;;;;;31.87;18.30;;;;;;;7.78;100.00;99759.03;5069503;28;20203;-59
2023/01/14 04:27:37;;;;;;;27.07;18.00;;;;;;;7.72;100.00;99754.78;5068496;28;20605;-58
2023/01/14 04:30:05;;;;;;;32.47;18.77;;;;;;;7.69;100.00;99741.91;5069066;28;20192;-58
2023/01/14 04:32:32;;;;;;;31.37;18.30;;;;;;;7.79;100.00;99753.00;5068936;28;20196;-59
2023/01/14 04:35:00;;;;;;;30.10;19.70;;;;;;;7.63;100.00;99744.59;5068643;28;20192;-59
2023/01/14 04:37:27;;;;;;;30.70;18.97;;;;;;;7.62;100.00;99764.41;5068696;28;20184;-59
2023/01/14 04:39:54;;;;;;;27.90;18.67;;;;;;;7.56;100.00;99768.78;5069063;28;20196;-59
2023/01/14 04:42:31;;;;;;;31.90;20.30;;;;;;;7.44;100.00;99754.31;5066448;28;20231;-58
2023/01/14 04:45:00;;;;;;;30.17;17.87;;;;;;;7.56;100.00;99759.28;5069026;28;20229;-58
2023/01/14 04:47:28;;;;;;;32.80;19.10;;;;;;;7.54;100.00;99760.22;5069647;28;20227;-59
2023/01/14 04:49:55;;;;;;;26.47;17.03;;;;;;;7.52;100.00;99767.13;5069998;28;20202;-57
2023/01/14 04:52:24;;;;;;;30.43;18.67;;;;;;;7.65;100.00;99772.13;5069990;28;20218;-58
2023/01/14 04:54:51;;;;;;;28.47;19.27;;;;;;;7.61;100.00;99764.41;5068933;28;20196;-59
2023/01/14 04:57:18;;;;;;;32.13;20.43;;;;;;;7.65;100.00;99773.84;5069802;28;20202;-59
2023/01/14 04:59:45;;;;;;;32.20;19.83;;;;;;;7.68;100.00;99775.50;5069889;28;20299;-59
2023/01/14 05:02:12;;;;;;;32.40;19.13;;;;;;;7.61;100.00;99774.75;5069797;28;20203;-59
2023/01/14 05:04:39;;;;;;;30.93;19.10;;;;;;;7.60;100.00;99773.03;5069864;28;20192;-59
2023/01/14 05:07:06;;;;;;;34.40;19.90;;;;;;;7.61;100.00;99767.84;5069884;28;20206;-58
2023/01/14 05:09:34;;;;;;;35.63;19.30;;;;;;;7.75;100.00;99778.00;5069287;28;20552;-59
2023/01/14 05:12:01;;;;;;;29.50;18.83;;;;;;;7.78;100.00;99780.56;5068831;28;20204;-58
2023/01/14 05:14:28;;;;;;;34.13;19.00;;;;;;;7.72;100.00;99778.03;5068806;28;20206;-58
2023/01/14 05:16:55;;;;;;;27.50;17.97;;;;;;;7.78;100.00;99775.41;5069089;28;20196;-59
2023/01/14 05:19:22;;;;;;;30.80;19.17;;;;;;;7.72;100.00;99782.34;5069604;28;20199;-59
2023/01/14 05:21:48;;;;;;;28.90;17.63;;;;;;;7.66;100.00;99772.97;5069834;28;20196;-58
2023/01/14 05:24:16;;;;;;;30.67;17.53;;;;;;;7.59;100.00;99769.59;5069811;28;20200;-58
2023/01/14 05:26:44;;;;;;;34.00;19.10;;;;;;;7.53;100.00;99774.00;5069721;28;20724;-59
2023/01/14 05:29:11;;;;;;;28.80;17.73;;;;;;;7.51;100.00;99768.84;5070249;28;20220;-59
2023/01/14 05:31:37;;;;;;;32.17;18.30;;;;;;;7.43;100.00;99767.22;5069528;28;20210;-58
2023/01/14 05:34:05;;;;;;;32.23;18.03;;;;;;;7.41;100.00;99754.34;5069768;28;20206;-61
2023/01/14 05:36:31;;;;;;;31.70;18.40;;;;;;;7.60;100.00;99766.13;5069654;28;20196;-59
2023/01/14 05:38:58;;;;;;;30.40;18.50;;;;;;;7.66;100.00;99770.38;5070126;28;20274;-61
2023/01/14 05:41:25;;;;;;;28.30;16.97;;;;;;;7.62;100.00;99774.72;5073399;28;20199;-62
2023/01/14 05:46:37;;;;;;;31.10;16.57;;;;;;;7.74;100.00;99768.53;5073833;28;20198;-60
2023/01/14 05:49:04;;;;;;;31.23;16.87;;;;;;;7.70;100.00;99774.63;5073319;28;20310;-59
2023/01/14 05:51:31;;;;;;;30.50;16.87;;;;;;;7.68;100.00;99772.91;5072635;28;20187;-59
2023/01/14 05:53:58;;;;;;;29.70;16.30;;;;;;;7.74;100.00;99768.53;5073360;28;20207;-60
2023/01/14 05:56:25;;;;;;;31.07;17.40;;;;;;;7.74;100.00;99757.34;5073115;28;20196;-58
2023/01/14 05:58:54;;;;;;;35.80;17.60;;;;;;;7.56;100.00;99754.13;5073375;28;20228;-59
2023/01/14 06:06:51;;;;;;;28.97;16.67;;;;;;;7.67;100.00;99764.34;5073137;28;20221;-58
2023/01/14 06:09:20;;;;;;;30.57;16.23;;;;;;;7.70;100.00;99772.03;5073146;28;20223;-59
2023/01/14 06:11:48;;;;;;;31.80;17.57;;;;;;;7.62;100.00;99766.97;5072953;28;20206;-58
2023/01/14 06:14:17;;;;;;;34.47;17.93;;;;;;;7.59;100.00;99761.84;5072987;28;20196;-57
2023/01/14 06:16:43;;;;;;;31.17;17.93;;;;;;;7.63;100.00;99760.94;5073099;28;20203;-58
2023/01/14 06:19:12;;;;;;;31.47;16.93;;;;;;;7.71;100.00;99773.75;5072563;28;20199;-58
2023/01/14 06:21:40;;;;;;;29.00;16.50;;;;;;;7.64;100.00;99769.53;5072660;28;20196;-59
2023/01/14 06:24:08;;;;;;;37.33;17.00;;;;;;;7.70;100.00;99769.44;5072906;28;20204;-58
2023/01/14 06:26:36;;;;;;;31.63;17.63;;;;;;;7.68;100.00;99770.34;5072505;28;20228;-59
2023/01/14 06:29:05;;;;;;;36.73;19.40;;;;;;;7.74;100.00;99772.84;5072557;28;20310;-58
2023/01/14 06:31:35;;;;;;;37.50;17.90;;;;;;;7.75;100.00;99765.09;5072454;28;20196;-59
2023/01/14 06:34:02;;;;;;;31.53;18.13;;;;;;;7.80;100.00;99765.00;5072555;28;20200;-58
2023/01/14 06:36:30;;;;;;;35.90;19.13;;;;;;;7.80;100.00;99763.28;5072580;28;20200;-59
2023/01/14 06:38:57;;;;;;;35.63;19.60;;;;;;;7.83;100.00;99760.66;5072583;28;20231;-59
2023/01/14 06:41:24;;;;;;;35.87;19.23;;;;;;;7.74;100.00;99755.63;5072297;28;20222;-60
2023/01/14 06:43:51;;;;;;;37.27;19.93;;;;;;;7.82;100.00;99761.53;5072599;28;20265;-59
2023/01/14 06:46:18;;;;;;;40.07;20.03;;;;;;;7.84;100.00;99757.22;5072610;28;20198;-59
2023/01/14 06:48:46;;;;;;;52.67;22.53;;;;;;;7.83;100.00;99765.84;5072496;28;20610;-60
2023/01/14 06:51:15;;;;;;;39.30;21.27;;;;;;;7.82;100.00;99761.53;5071503;28;20211;-59
2023/01/14 06:53:42;;;;;;;47.67;22.80;;;;;;;7.92;100.00;99767.44;5072227;28;20739;-58
2023/01/14 06:56:12;;;;;;;46.03;24.03;;;;;;;7.90;100.00;99766.63;5071992;28;20209;-58
2023/01/14 06:58:39;;;;;;;47.50;23.20;;;;;;;7.78;100.00;99775.41;5071748;28;20200;-59
2023/01/14 07:01:09;;;;;;;45.80;22.80;;;;;;;7.72;100.00;99775.47;5072240;28;20203;-58
2023/01/14 07:03:36;;;;;;;47.90;23.50;;;;;;;7.72;100.00;99772.03;5071210;28;20277;-59
2023/01/14 07:06:04;;;;;;;43.67;23.57;;;;;;;7.86;100.00;99777.88;5069117;28;20192;-58
2023/01/14 07:08:31;;;;;;;47.40;23.97;;;;;;;7.82;100.00;99776.19;5070787;28;20212;-59
2023/01/14 07:10:58;;;;;;;48.93;23.87;;;;;;;7.77;100.00;99781.44;5071867;28;20206;-59
2023/01/14 07:13:25;;;;;;;44.23;23.00;;;;;;;7.77;100.00;99780.56;5072042;28;20199;-58
2023/01/14 07:15:52;;;;;;;41.57;23.07;;;;;;;7.89;100.00;99777.84;5071965;28;20580;-58
2023/01/14 07:18:19;;;;;;;46.83;23.10;;;;;;;8.01;100.00;99786.25;5072056;28;20199;-57
2023/01/14 07:20:46;;;;;;;47.13;23.27;;;;;;;7.92;100.00;99775.19;5071356;28;20191;-59
2023/01/14 07:23:15;;;;;;;50.00;23.67;;;;;;;7.84;100.00;99767.53;5071050;28;20196;-57
2023/01/14 07:25:42;;;;;;;47.80;24.40;;;;;;;7.92;100.00;99782.94;5070722;28;20192;-59
2023/01/14 07:28:09;;;;;;;46.27;23.33;;;;;;;8.01;100.00;99781.06;5070478;28;20236;-58
2023/01/14 07:30:35;;;;;;;45.30;22.73;;;;;;;8.03;100.00;99783.63;5071151;28;20580;-60
2023/01/14 07:33:03;;;;;;;53.47;25.23;;;;;;;8.01;100.00;99781.06;5070342;28;20207;-61
2023/01/14 07:35:30;;;;;;;54.87;24.93;;;;;;;7.93;100.00;99764.81;5069756;28;20192;-61
2023/01/14 07:37:59;;;;;;;49.07;24.70;;;;;;;7.91;100.00;99774.31;5070315;28;20231;-58
2023/01/14 07:40:28;;;;;;;55.17;25.77;;;;;;;8.07;100.00;99781.88;5070747;28;20261;-58
2023/01/14 07:42:56;;;;;;;61.70;27.73;;;;;;;8.13;100.00;99784.34;5070746;28;20196;-58
2023/01/14 07:45:23;;;;;;;83.23;35.73;;;;;;;8.02;100.00;99784.50;5070648;28;20192;-59
2023/01/14 07:47:50;;;;;;;69.87;33.17;;;;;;;7.94;100.00;99771.69;5070526;28;20287;-58
2023/01/14 07:50:18;;;;;;;65.70;30.97;;;;;;;8.09;100.00;99785.28;5070533;28;20216;-60
2023/01/14 07:52:51;;;;;;;55.90;29.00;;;;;;;8.10;100.00;99781.84;5070474;28;20203;-59
2023/01/14 07:55:18;;;;;;;50.40;27.77;;;;;;;8.13;100.00;99787.78;5070754;28;20195;-60
2023/01/14 07:57:46;;;;;;;52.20;24.67;;;;;;;8.11;100.00;99779.22;5070492;28;20211;-61
2023/01/14 08:00:15;;;;;;;43.83;21.97;;;;;;;8.12;100.00;99786.13;5070529;28;20204;-60
2023/01/14 08:02:42;;;;;;;45.27;23.00;;;;;;;8.13;100.00;99786.94;5068823;28;20204;-62
2023/01/14 08:05:09;;;;;;;43.70;23.40;;;;;;;8.19;100.00;99786.88;5069332;28;20200;-61
2023/01/14 08:07:36;;;;;;;45.37;23.23;;;;;;;8.19;100.00;99787.72;5068867;28;20211;-60
2023/01/14 08:10:04;;;;;;;47.53;23.60;;;;;;;8.05;100.00;99773.28;5069405;28;20227;-60
2023/01/14 08:12:32;;;;;;;45.30;23.43;;;;;;;8.07;100.00;99787.03;5060616;28;20224;-60
2023/01/14 08:15:00;;;;;;;50.03;25.57;;;;;;;8.16;100.00;99784.31;5064006;28;20239;-60
2023/01/14 08:17:27;;;;;;;49.30;25.37;;;;;;;8.18;100.00;99787.75;5068217;28;20215;-62
2023/01/14 08:19:54;;;;;;;52.73;24.50;;;;;;;8.14;100.00;99786.91;5068348;28;20319;-61
2023/01/14 08:22:21;;;;;;;54.77;24.90;;;;;;;8.16;100.00;99789.50;5065748;28;20223;-62
2023/01/14 08:24:48;;;;;;;56.20;25.40;;;;;;;8.29;100.00;99796.19;5068108;28;20616;-62
2023/01/14 08:27:15;;;;;;;51.60;24.63;;;;;;;8.27;100.00;99798.81;5068298;28;20223;-61
2023/01/14 08:29:42;;;;;;;49.43;23.63;;;;;;;8.37;100.00;99802.13;5064556;28;20688;-59
2023/01/14 08:32:10;;;;;;;46.87;24.07;;;;;;;8.43;100.00;99804.63;5068170;28;20220;-58
2023/01/14 08:34:37;;;;;;;49.10;23.50;;;;;;;8.23;100.00;99810.09;5074062;28;20615;-57
2023/01/14 08:37:04;;;;;;;52.60;25.53;;;;;;;8.23;100.00;99809.22;5072830;28;20616;-58
2023/01/14 08:39:31;;;;;;;59.43;26.37;;;;;;;8.25;100.00;99810.88;5068119;28;20196;-58
2023/01/14 08:41:58;;;;;;;57.67;27.00;;;;;;;8.26;100.00;99810.00;5068710;28;20223;-58
2023/01/14 08:44:25;;;;;;;60.20;29.17;;;;;;;8.34;100.00;99812.53;5068655;28;20188;-58
2023/01/14 08:46:52;;;;;;;58.70;28.03;;;;;;;8.30;100.00;99803.94;5068411;28;20212;-59
2023/01/14 08:49:20;;;;;;;63.13;30.10;;;;;;;8.40;100.00;99801.22;5069037;28;20620;-58
2023/01/14 08:51:47;;;;;;;73.90;32.13;;;;;;;8.45;100.00;99802.88;5066366;28;20200;-58
2023/01/14 08:54:14;;;;;;;64.13;31.77;;;;;;;8.55;100.00;99804.44;5069220;28;20195;-60
2023/01/14 08:56:41;;;;;;;90.53;40.90;;;;;;;8.52;100.00;99807.06;5065936;28;20220;-60
2023/01/14 08:59:08;;;;;;;80.30;39.77;;;;;;;8.57;100.00;99805.28;5065302;28;20216;-60
2023/01/14 09:01:35;;;;;;;99.93;47.80;;;;;;;8.52;100.00;99804.50;5067619;28;20287;-60
2023/01/14 09:04:02;;;;;;;112.43;53.47;;;;;;;8.57;100.00;99812.19;5067813;28;20649;-57
2023/01/14 09:06:30;;;;;;;109.83;54.43;;;;;;;8.58;100.00;99803.53;5067859;28;20200;-59
2023/01/14 09:17:15;;;;;;;90.83;47.33;;;;;;;8.55;100.00;99798.41;5068272;28;20553;-59
2023/01/14 09:19:46;;;;;;;83.07;44.53;;;;;;;8.72;100.00;99802.44;5068082;28;20222;-60
2023/01/14 09:22:17;;;;;;;85.93;46.13;;;;;;;8.73;100.00;99804.13;5067897;28;20196;-59
2023/01/14 09:24:44;;;;;;;89.97;44.50;;;;;;;8.74;100.00;99798.09;5069051;28;20612;-61
2023/01/14 09:27:11;;;;;;;83.30;41.13;;;;;;;8.73;100.00;99801.53;5068907;28;20248;-60
2023/01/14 09:29:38;;;;;;;84.90;41.67;;;;;;;8.68;100.00;99802.53;5068834;28;20216;-60
2023/01/14 09:32:08;;;;;;;68.47;36.77;;;;;;;8.64;100.00;99796.53;5068270;28;20668;-61
2023/01/14 09:34:35;;;;;;;84.33;39.63;;;;;;;8.65;100.00;99798.25;5068014;28;20206;-61
2023/01/14 09:37:02;;;;;;;101.40;49.83;;;;;;;8.66;100.00;99788.75;5067948;28;20253;-62
2023/01/14 09:39:30;;;;;;;90.23;47.40;;;;;;;8.73;100.00;99790.34;5068846;28;20607;-61
2023/01/14 09:42:00;;;;;;;84.97;44.07;;;;;;;8.45;100.00;99789.94;5068998;28;20206;-60
2023/01/14 09:44:28;;;;;;;93.10;45.87;;;;;;;8.45;100.00;99789.94;5067829;28;20199;-59
2023/01/14 09:46:55;;;;;;;67.63;36.93;;;;;;;8.56;100.00;99782.88;5067762;28;20196;-59
2023/01/14 09:49:25;;;;;;;78.57;37.03;;;;;;;8.58;100.00;99781.09;5068893;28;20227;-58
2023/01/14 09:52:08;;;;;;;89.83;40.80;;;;;;;8.60;100.00;99783.66;5069096;28;20672;-59
2023/01/14 09:54:45;;;;;;;72.90;37.90;;;;;;;8.69;100.00;99780.94;5067093;28;20295;-57
2023/01/14 09:57:19;;;;;;;66.33;34.67;;;;;;;8.56;100.00;99782.03;5065454;28;20200;-59
2023/01/14 09:59:56;;;;;;;63.10;34.03;;;;;;;8.66;100.00;99775.81;5064595;28;20211;-58
2023/01/14 10:02:28;;;;;;;66.53;34.67;;;;;;;8.66;100.00;99775.81;5067733;28;20204;-59
2023/01/14 10:05:18;;;;;;;60.40;31.93;;;;;;;8.59;100.00;99777.63;5066383;28;20210;-58
2023/01/14 10:07:45;;;;;;;62.87;35.63;;;;;;;8.58;100.00;99772.47;5067555;28;20570;-61
2023/01/14 10:10:25;;;;;;;60.00;34.03;;;;;;;8.62;100.00;99768.97;5068525;28;20216;-61
2023/01/14 10:12:55;;;;;;;95.83;50.20;;;;;;;8.61;100.00;99770.69;5068825;28;20200;-60
2023/01/14 10:15:33;;;;;;;65.37;35.00;;;;;;;8.71;100.00;99764.47;5068464;28;20204;-60
2023/01/14 10:18:07;;;;;;;104.10;49.53;;;;;;;8.69;100.00;99757.66;5060372;28;20212;-58
2023/01/14 10:20:38;;;;;;;61.53;32.00;;;;;;;8.66;100.00;99744.75;5064925;28;20193;-60
2023/01/14 10:23:11;;;;;;;55.80;29.03;;;;;;;8.71;100.00;99759.31;5067444;28;20583;-59
2023/01/14 10:25:43;;;;;;;50.20;28.83;;;;;;;8.77;100.00;99758.38;5067014;28;20196;-58
2023/01/14 10:28:14;;;;;;;57.00;31.80;;;;;;;8.70;100.00;99757.59;5070609;28;20247;-59
2023/01/14 10:30:43;;;;;;;55.93;31.57;;;;;;;8.83;100.00;99749.63;5071121;28;20227;-59
2023/01/14 10:33:15;;;;;;;55.77;31.57;;;;;;;8.81;100.00;99751.38;5070990;28;20202;-60
2023/01/14 10:35:45;;;;;;;69.63;38.17;;;;;;;8.86;100.00;99750.44;5070868;28;20702;-59
2023/01/14 10:38:17;;;;;;;76.17;38.07;;;;;;;8.85;100.00;99743.53;5070603;28;20203;-59
2023/01/14 10:40:47;;;;;;;62.23;34.53;;;;;;;8.89;100.00;99741.75;5072196;28;20203;-61
2023/01/14 10:43:24;;;;;;;47.63;27.83;;;;;;;8.83;100.00;99745.28;5071860;28;20667;-59
2023/01/14 10:45:50;;;;;;;60.07;33.53;;;;;;;8.83;100.00;99742.72;5072036;28;20581;-59
2023/01/14 10:48:21;;;;;;;57.87;32.10;;;;;;;8.76;100.00;99735.94;5071788;28;20202;-58
2023/01/14 10:50:48;;;;;;;55.30;29.37;;;;;;;8.79;100.00;99738.50;5071623;28;20222;-58
2023/01/14 10:53:20;;;;;;;62.77;34.50;;;;;;;8.81;100.00;99735.84;5071850;28;20218;-59
2023/01/14 10:55:55;;;;;;;69.97;35.67;;;;;;;8.72;100.00;99729.09;5071354;28;20286;-59
2023/01/14 10:58:28;;;;;;;95.03;45.37;;;;;;;8.71;100.00;99738.59;5071987;28;20235;-58
2023/01/14 11:01:05;;;;;;;68.67;34.53;;;;;;;8.73;100.00;99739.44;5071537;28;20206;-58
2023/01/14 11:03:35;;;;;;;67.53;37.30;;;;;;;8.70;100.00;99728.28;5071504;28;20196;-59
2023/01/14 11:06:05;;;;;;;56.03;32.30;;;;;;;8.71;100.00;99737.75;5069839;28;20192;-60
2023/01/14 11:08:35;;;;;;;52.63;30.83;;;;;;;8.81;100.00;99735.84;5064741;28;20211;-59
2023/01/14 11:11:08;;;;;;;63.57;32.97;;;;;;;8.79;100.00;99735.03;5071411;28;20215;-59
2023/01/14 11:13:41;;;;;;;65.63;34.80;;;;;;;8.74;100.00;99725.63;5071424;28;20752;-58
2023/01/14 11:16:29;;;;;;;58.43;31.77;;;;;;;8.82;100.00;99738.41;5071530;28;20202;-59
2023/01/14 11:18:58;;;;;;;65.23;33.07;;;;;;;8.82;100.00;99734.97;5071251;28;20199;-58
2023/01/14 11:21:27;;;;;;;56.80;32.50;;;;;;;8.87;100.00;99733.16;5071371;28;20199;-59
2023/01/14 11:23:56;;;;;;;64.97;33.90;;;;;;;8.90;100.00;99735.69;5071261;28;20623;-58
2023/01/14 11:26:28;;;;;;;61.67;35.03;;;;;;;9.00;100.00;99737.22;5071121;28;20200;-59
2023/01/14 11:29:03;;;;;;;63.93;36.20;;;;;;;8.99;100.00;99731.19;5070945;28;20693;-58
2023/01/14 11:31:35;;;;;;;126.40;61.30;;;;;;;8.99;100.00;99725.16;5071581;28;20987;-59
2023/01/14 11:34:02;;;;;;;278.33;141.80;;;;;;;8.94;100.00;99730.41;5071209;28;20617;-59
2023/01/14 11:36:33;;;;;;;101.00;53.97;;;;;;;8.93;100.00;99722.69;5070958;28;20200;-61
2023/01/14 11:39:02;;;;;;;79.80;43.40;;;;;;;8.93;100.00;99725.28;5070981;28;20196;-62
2023/01/14 11:41:33;;;;;;;68.80;40.13;;;;;;;8.90;100.00;99733.13;5070760;28;20237;-60
2023/01/14 11:44:02;;;;;;;64.00;37.47;;;;;;;9.02;100.00;99720.81;5071036;28;20200;-62
2023/01/14 11:46:30;;;;;;;64.10;37.60;;;;;;;8.90;100.00;99722.75;5070865;28;20196;-61
2023/01/14 11:49:03;;;;;;;67.93;40.30;;;;;;;8.96;100.00;99725.22;5071164;28;20593;-62